Time;durP1;ratioP1;P1;durP2;ratioP2;P2;SDS_P1;SDS_P2;PMS_P1;PMS_P2;Temp;Humidity;BMP_temperature;BMP_pressure;BME280_temperature;BME280_humidity;BME280_pressure;Samples;Min_cycle;Max_cycle;Signal;HPM_P1;HPM_P2
2023/05/20 00:01:41;;;;;;;3.80;2.30;;;;;;;;;;5053594;28;20518;-57
2023/05/20 00:04:07;;;;;;;4.47;2.25;;;;;;;;;;5048792;28;20053;-56
2023/05/20 00:06:34;;;;;;;4.78;2.60;;;;;;;;;;5063747;28;20526;-52
2023/05/20 00:09:00;;;;;;;3.97;2.33;;;;;;;;;;5060556;28;20619;-57
2023/05/20 00:11:27;;;;;;;3.17;2.35;;;;;;;;;;5064696;28;20505;-57
2023/05/20 00:13:53;;;;;;;3.97;2.50;;;;;;;;;;5060866;28;20052;-58
2023/05/20 00:16:19;;;;;;;8.77;2.67;;;;;;;;;;5062460;28;20140;-55
2023/05/20 00:18:46;;;;;;;5.40;2.47;;;;;;;;;;5055029;28;20502;-57
2023/05/20 00:21:12;;;;;;;4.72;2.55;;;;;;;;;;5063890;28;20057;-58
2023/05/20 00:23:39;;;;;;;3.28;2.08;;;;;;;;;;5057135;28;20622;-55
2023/05/20 00:26:05;;;;;;;4.53;2.22;;;;;;;;;;5058902;28;20057;-57
2023/05/20 00:28:32;;;;;;;4.47;2.60;;;;;;;;;;5059758;28;20102;-58
2023/05/20 00:30:58;;;;;;;5.07;2.13;;;;;;;;;;5063603;28;20053;-57
2023/05/20 00:33:24;;;;;;;5.47;2.40;;;;;;;;;;5059982;28;20060;-54
2023/05/20 00:35:51;;;;;;;3.78;2.63;;;;;;;;;;5061583;28;20049;-56
2023/05/20 00:38:17;;;;;;;6.00;2.80;;;;;;;;;;5051615;28;20043;-56
2023/05/20 00:40:43;;;;;;;5.00;2.88;;;;;;;;;;5063468;28;20083;-56
2023/05/20 00:43:10;;;;;;;6.03;2.50;;;;;;;;;;5060994;28;20057;-56
2023/05/20 00:45:37;;;;;;;7.30;2.60;;;;;;;;;;5057385;28;20092;-56
2023/05/20 00:48:04;;;;;;;5.35;2.25;;;;;;;;;;5059236;28;20086;-54
2023/05/20 00:50:31;;;;;;;4.93;2.47;;;;;;;;;;5049529;28;20053;-57
2023/05/20 00:52:58;;;;;;;6.82;2.30;;;;;;;;;;5060518;28;20057;-56
2023/05/20 00:55:24;;;;;;;5.43;2.58;;;;;;;;;;5057012;28;20130;-55
2023/05/20 00:57:51;;;;;;;6.57;2.97;;;;;;;;;;5056055;28;20128;-55
2023/05/20 01:00:17;;;;;;;5.78;2.60;;;;;;;;;;5058902;28;20060;-57
2023/05/20 01:02:44;;;;;;;6.80;2.33;;;;;;;;;;5046548;28;20466;-55
2023/05/20 01:05:10;;;;;;;5.70;2.30;;;;;;;;;;5060635;28;20057;-55
2023/05/20 01:07:37;;;;;;;4.38;2.92;;;;;;;;;;5050682;28;20103;-56
2023/05/20 01:10:03;;;;;;;7.50;3.00;;;;;;;;;;5060475;28;21819;-57
2023/05/20 01:12:56;;;;;;;4.75;2.58;;;;;;;;;;5061977;28;20584;-54
2023/05/20 01:15:24;;;;;;;4.32;2.50;;;;;;;;;;5060685;28;20049;-56
2023/05/20 01:17:56;;;;;;;3.72;2.45;;;;;;;;;;5063117;28;20107;-55
2023/05/20 01:20:23;;;;;;;4.70;2.60;;;;;;;;;;5060363;28;20564;-58
2023/05/20 01:22:53;;;;;;;3.92;2.60;;;;;;;;;;5058497;28;20053;-56
2023/05/20 01:25:20;;;;;;;7.45;2.85;;;;;;;;;;5052239;28;20137;-53
2023/05/20 01:27:47;;;;;;;3.75;3.00;;;;;;;;;;5061705;28;20538;-56
2023/05/20 01:30:15;;;;;;;4.47;2.55;;;;;;;;;;5053241;28;20056;-58
2023/05/20 01:32:44;;;;;;;7.50;2.67;;;;;;;;;;5052508;28;20089;-55
2023/05/20 01:35:10;;;;;;;10.00;2.80;;;;;;;;;;5056317;28;20060;-57
2023/05/20 01:37:38;;;;;;;4.95;2.80;;;;;;;;;;5042121;28;20081;-57
2023/05/20 01:40:08;;;;;;;6.47;3.50;;;;;;;;;;5058361;28;22205;-55
2023/05/20 01:42:35;;;;;;;5.93;2.88;;;;;;;;;;5060664;28;20720;-57
2023/05/20 01:45:02;;;;;;;5.53;2.85;;;;;;;;;;5055842;28;20053;-57
2023/05/20 01:47:28;;;;;;;4.93;2.63;;;;;;;;;;5062582;28;20176;-55
2023/05/20 01:49:55;;;;;;;6.90;2.85;;;;;;;;;;5049991;28;20050;-58
2023/05/20 01:52:22;;;;;;;6.43;3.22;;;;;;;;;;5059773;28;20053;-58
2023/05/20 01:54:50;;;;;;;5.50;2.60;;;;;;;;;;5059812;28;20052;-56
2023/05/20 01:57:20;;;;;;;6.47;2.80;;;;;;;;;;5053841;28;20053;-54
2023/05/20 01:59:47;;;;;;;4.35;2.95;;;;;;;;;;5061163;28;20107;-54
2023/05/20 02:02:13;;;;;;;11.10;2.85;;;;;;;;;;5061408;28;20515;-54
2023/05/20 02:04:42;;;;;;;8.88;3.00;;;;;;;;;;5060726;28;20522;-57
2023/05/20 02:07:09;;;;;;;10.30;3.30;;;;;;;;;;5056739;28;20056;-56
2023/05/20 02:09:36;;;;;;;4.40;2.92;;;;;;;;;;5063580;28;20080;-56
2023/05/20 02:12:02;;;;;;;5.28;3.00;;;;;;;;;;5052515;28;20053;-56
2023/05/20 02:14:29;;;;;;;4.95;3.25;;;;;;;;;;5061985;28;20057;-57
2023/05/20 02:16:55;;;;;;;3.55;2.78;;;;;;;;;;5062418;28;20060;-57
2023/05/20 02:19:22;;;;;;;5.30;3.85;;;;;;;;;;5055584;28;20057;-57
2023/05/20 02:21:50;;;;;;;4.97;2.97;;;;;;;;;;5054901;28;20548;-56
2023/05/20 02:24:16;;;;;;;6.45;2.63;;;;;;;;;;5045698;28;20062;-57
2023/05/20 02:26:45;;;;;;;4.90;3.08;;;;;;;;;;5053278;28;20580;-56
2023/05/20 02:29:11;;;;;;;5.00;2.88;;;;;;;;;;5059077;28;20045;-55
2023/05/20 02:31:38;;;;;;;5.43;3.00;;;;;;;;;;5061909;28;20053;-58
2023/05/20 02:34:04;;;;;;;7.85;3.45;;;;;;;;;;5060865;28;20144;-57
2023/05/20 02:36:31;;;;;;;12.73;3.80;;;;;;;;;;5056287;28;20053;-56
2023/05/20 02:38:57;;;;;;;5.00;2.72;;;;;;;;;;5060757;28;20053;-57
2023/05/20 02:41:24;;;;;;;7.22;2.97;;;;;;;;;;5060542;28;20063;-55
2023/05/20 02:43:50;;;;;;;6.45;2.78;;;;;;;;;;5064360;28;20399;-58
2023/05/20 02:46:18;;;;;;;6.65;3.50;;;;;;;;;;5065029;28;20088;-56
2023/05/20 02:48:44;;;;;;;5.95;3.50;;;;;;;;;;5064235;28;20132;-55
2023/05/20 02:51:11;;;;;;;4.10;2.80;;;;;;;;;;5061582;28;20147;-58
2023/05/20 02:53:37;;;;;;;5.03;3.33;;;;;;;;;;5062196;28;20131;-58
2023/05/20 02:56:04;;;;;;;5.53;3.28;;;;;;;;;;5060348;28;20162;-58
2023/05/20 02:58:32;;;;;;;4.38;2.85;;;;;;;;;;5057052;28;20494;-58
2023/05/20 03:00:58;;;;;;;5.18;2.88;;;;;;;;;;5054538;28;20053;-56
2023/05/20 03:03:25;;;;;;;5.32;2.92;;;;;;;;;;5064130;28;20150;-56
2023/05/20 03:05:52;;;;;;;6.10;3.67;;;;;;;;;;5052191;28;20929;-58
2023/05/20 03:08:22;;;;;;;3.13;2.83;;;;;;;;;;5056000;28;20189;-58
2023/05/20 03:10:48;;;;;;;4.40;2.60;;;;;;;;;;5063625;28;20061;-55
2023/05/20 03:13:15;;;;;;;8.13;3.42;;;;;;;;;;5051104;28;21184;-56
2023/05/20 03:15:44;;;;;;;5.63;3.30;;;;;;;;;;5059780;28;20049;-55
2023/05/20 03:18:12;;;;;;;4.93;3.10;;;;;;;;;;5044142;28;21012;-55
2023/05/20 03:20:40;;;;;;;4.53;3.45;;;;;;;;;;5054832;28;20123;-57
2023/05/20 03:23:06;;;;;;;5.40;2.83;;;;;;;;;;5056529;28;20088;-57
2023/05/20 03:25:33;;;;;;;6.60;3.25;;;;;;;;;;5049612;28;20534;-56
2023/05/20 03:28:00;;;;;;;7.15;2.75;;;;;;;;;;5048523;28;20064;-57
2023/05/20 03:30:27;;;;;;;4.75;3.10;;;;;;;;;;5064572;28;20056;-55
2023/05/20 03:32:55;;;;;;;4.90;2.83;;;;;;;;;;5076625;28;20239;-56
2023/05/20 03:35:21;;;;;;;4.80;2.95;;;;;;;;;;5059631;28;20049;-53
2023/05/20 03:37:50;;;;;;;5.43;3.05;;;;;;;;;;5061283;28;20056;-53
2023/05/20 03:40:16;;;;;;;4.40;2.75;;;;;;;;;;5062282;28;20053;-57
2023/05/20 03:42:43;;;;;;;3.20;2.58;;;;;;;;;;5050507;28;20231;-58
2023/05/20 03:45:10;;;;;;;6.32;3.63;;;;;;;;;;5044191;28;20127;-58
2023/05/20 03:47:36;;;;;;;4.90;3.03;;;;;;;;;;5051737;28;20119;-55
2023/05/20 03:50:03;;;;;;;6.78;3.72;;;;;;;;;;5063415;28;20068;-53
2023/05/20 03:52:29;;;;;;;7.97;3.60;;;;;;;;;;5060612;28;20057;-55
2023/05/20 03:54:56;;;;;;;3.72;2.70;;;;;;;;;;5059561;28;20053;-54
2023/05/20 03:57:22;;;;;;;5.95;3.42;;;;;;;;;;5063596;28;20506;-53
2023/05/20 03:59:48;;;;;;;4.93;3.22;;;;;;;;;;5066577;28;20053;-58
2023/05/20 04:02:15;;;;;;;6.55;3.00;;;;;;;;;;5057716;28;20045;-56
2023/05/20 04:04:42;;;;;;;5.43;3.15;;;;;;;;;;5058229;28;20049;-58
2023/05/20 04:07:11;;;;;;;6.18;3.13;;;;;;;;;;5063064;28;20474;-54
2023/05/20 04:09:37;;;;;;;5.10;2.85;;;;;;;;;;5055111;28;20111;-58
2023/05/20 04:12:04;;;;;;;7.03;2.67;;;;;;;;;;5064024;28;20061;-54
2023/05/20 04:14:33;;;;;;;4.28;3.08;;;;;;;;;;5064446;28;20134;-55
2023/05/20 04:17:02;;;;;;;9.73;3.65;;;;;;;;;;5054957;28;20808;-56
2023/05/20 04:19:28;;;;;;;5.22;2.92;;;;;;;;;;5062668;28;20056;-57
2023/05/20 04:21:55;;;;;;;5.55;3.17;;;;;;;;;;5056669;28;20045;-56
2023/05/20 04:24:24;;;;;;;4.03;3.20;;;;;;;;;;5060961;28;20130;-55
2023/05/20 04:26:51;;;;;;;6.15;3.42;;;;;;;;;;5050781;28;20095;-55
2023/05/20 04:29:18;;;;;;;4.55;2.88;;;;;;;;;;5051041;28;20119;-55
2023/05/20 04:31:45;;;;;;;7.25;2.92;;;;;;;;;;5051649;28;20057;-57
2023/05/20 04:34:12;;;;;;;6.15;3.25;;;;;;;;;;5051024;28;20640;-58
2023/05/20 04:36:38;;;;;;;4.88;3.20;;;;;;;;;;5051158;28;20164;-57
2023/05/20 04:39:06;;;;;;;7.53;3.53;;;;;;;;;;5053033;28;20065;-55
2023/05/20 04:41:34;;;;;;;3.90;3.13;;;;;;;;;;5056726;28;20055;-55
2023/05/20 04:44:00;;;;;;;7.55;3.00;;;;;;;;;;5051013;28;20133;-58
2023/05/20 04:46:27;;;;;;;4.97;3.00;;;;;;;;;;5065250;28;20057;-59
2023/05/20 04:48:53;;;;;;;4.50;2.97;;;;;;;;;;5063393;28;20056;-58
2023/05/20 04:51:20;;;;;;;5.78;2.78;;;;;;;;;;5061723;28;20053;-55
2023/05/20 04:53:46;;;;;;;5.18;2.72;;;;;;;;;;5049476;28;20159;-57
2023/05/20 04:56:14;;;;;;;7.00;3.90;;;;;;;;;;5063486;28;20580;-57
2023/05/20 04:58:40;;;;;;;6.20;3.20;;;;;;;;;;5072790;28;20082;-58
2023/05/20 05:01:07;;;;;;;5.45;2.63;;;;;;;;;;5062632;28;20049;-58
2023/05/20 05:03:33;;;;;;;3.53;2.63;;;;;;;;;;5056527;28;20238;-57
2023/05/20 05:06:02;;;;;;;8.23;3.53;;;;;;;;;;5058365;28;21277;-58
2023/05/20 05:08:28;;;;;;;4.13;2.55;;;;;;;;;;5062594;28;20057;-58
2023/05/20 05:10:55;;;;;;;5.78;3.42;;;;;;;;;;5053774;28;21345;-58
2023/05/20 05:13:21;;;;;;;4.78;3.00;;;;;;;;;;5052586;28;20053;-58
2023/05/20 05:15:47;;;;;;;4.43;2.60;;;;;;;;;;5063682;28;20521;-56
2023/05/20 05:18:17;;;;;;;9.50;3.20;;;;;;;;;;5062853;28;20056;-57
2023/05/20 05:20:43;;;;;;;8.05;3.47;;;;;;;;;;5062423;28;20599;-57
2023/05/20 05:23:10;;;;;;;6.95;3.42;;;;;;;;;;5061005;28;20131;-59
2023/05/20 05:25:36;;;;;;;3.05;2.75;;;;;;;;;;5056520;28;20053;-59
2023/05/20 05:28:02;;;;;;;4.93;2.67;;;;;;;;;;5062774;28;20056;-57
2023/05/20 05:30:29;;;;;;;3.33;2.50;;;;;;;;;;5061148;28;20088;-56
2023/05/20 05:32:55;;;;;;;4.03;2.63;;;;;;;;;;5050987;28;20183;-52
2023/05/20 05:35:22;;;;;;;5.25;2.58;;;;;;;;;;5063328;28;20049;-55
2023/05/20 05:37:48;;;;;;;3.50;2.65;;;;;;;;;;5057214;28;20119;-54
2023/05/20 05:40:15;;;;;;;3.63;2.38;;;;;;;;;;5060296;28;20138;-58
2023/05/20 05:42:41;;;;;;;4.35;2.67;;;;;;;;;;5048366;28;20053;-55
2023/05/20 05:45:08;;;;;;;6.38;3.22;;;;;;;;;;5061126;28;20056;-54
2023/05/20 05:47:34;;;;;;;3.67;2.83;;;;;;;;;;5059906;28;20123;-56
2023/05/20 05:50:00;;;;;;;5.47;2.72;;;;;;;;;;5057267;28;20045;-54
2023/05/20 05:52:27;;;;;;;4.60;2.60;;;;;;;;;;5058856;28;20941;-56
2023/05/20 05:54:53;;;;;;;4.50;2.72;;;;;;;;;;5061447;28;20059;-58
2023/05/20 05:57:19;;;;;;;3.28;2.45;;;;;;;;;;5061631;28;20148;-54
2023/05/20 05:59:46;;;;;;;3.92;2.60;;;;;;;;;;5049405;28;20151;-56
2023/05/20 06:02:13;;;;;;;5.45;3.90;;;;;;;;;;5045878;28;20124;-53
2023/05/20 06:04:40;;;;;;;5.88;3.30;;;;;;;;;;5046031;28;20076;-55
2023/05/20 06:07:06;;;;;;;4.90;2.70;;;;;;;;;;5061916;28;20498;-55
2023/05/20 06:09:33;;;;;;;6.50;2.50;;;;;;;;;;5047197;28;20057;-54
2023/05/20 06:11:59;;;;;;;2.72;2.40;;;;;;;;;;5062667;28;20722;-56
2023/05/20 06:14:26;;;;;;;5.60;2.90;;;;;;;;;;5057334;28;20133;-53
2023/05/20 06:16:52;;;;;;;4.38;3.13;;;;;;;;;;5057727;28;20057;-52
2023/05/20 06:19:19;;;;;;;4.72;2.45;;;;;;;;;;5063279;28;20168;-56
2023/05/20 06:21:45;;;;;;;8.57;3.15;;;;;;;;;;5061298;28;20061;-52
2023/05/20 06:24:12;;;;;;;3.17;2.67;;;;;;;;;;5055435;28;20119;-57
2023/05/20 06:26:38;;;;;;;7.90;2.90;;;;;;;;;;5065525;28;20084;-54
2023/05/20 06:29:04;;;;;;;6.70;3.28;;;;;;;;;;5063349;28;20053;-58
2023/05/20 06:31:31;;;;;;;5.45;2.20;;;;;;;;;;5062201;28;20517;-53
2023/05/20 06:33:57;;;;;;;4.30;2.53;;;;;;;;;;5049809;28;20052;-54
2023/05/20 06:36:23;;;;;;;4.05;2.58;;;;;;;;;;5062843;28;20949;-54
2023/05/20 06:38:50;;;;;;;5.15;2.90;;;;;;;;;;5053875;28;20549;-53
2023/05/20 06:41:16;;;;;;;3.85;2.42;;;;;;;;;;5062422;28;20068;-52
2023/05/20 06:43:42;;;;;;;3.20;2.35;;;;;;;;;;5065692;28;20049;-55
2023/05/20 06:46:09;;;;;;;4.28;2.88;;;;;;;;;;5065428;28;20168;-54
2023/05/20 06:48:35;;;;;;;4.20;2.88;;;;;;;;;;5065788;28;20064;-52
2023/05/20 06:51:01;;;;;;;4.15;2.67;;;;;;;;;;5062263;28;20053;-54
2023/05/20 06:53:28;;;;;;;3.03;2.22;;;;;;;;;;5065318;28;20052;-52
2023/05/20 06:55:54;;;;;;;3.90;3.20;;;;;;;;;;5058881;28;20672;-54
2023/05/20 06:58:21;;;;;;;5.78;2.92;;;;;;;;;;5066110;28;20059;-55
2023/05/20 07:00:47;;;;;;;3.28;2.40;;;;;;;;;;5077658;28;20052;-55
2023/05/20 07:03:14;;;;;;;4.32;2.42;;;;;;;;;;5071308;28;20110;-56
2023/05/20 07:05:40;;;;;;;3.60;2.47;;;;;;;;;;5065663;28;20524;-57
2023/05/20 07:08:07;;;;;;;6.85;2.83;;;;;;;;;;5074787;28;20076;-55
2023/05/20 07:10:33;;;;;;;3.60;2.47;;;;;;;;;;5046181;28;20060;-56
2023/05/20 07:13:00;;;;;;;3.88;2.55;;;;;;;;;;5044988;28;20061;-58
2023/05/20 07:15:27;;;;;;;2.33;1.92;;;;;;;;;;5056533;28;20540;-57
2023/05/20 07:17:53;;;;;;;5.38;2.65;;;;;;;;;;5046279;28;20065;-53
2023/05/20 07:20:20;;;;;;;2.50;2.00;;;;;;;;;;5053128;28;20104;-55
2023/05/20 07:22:47;;;;;;;3.55;2.60;;;;;;;;;;5054101;28;20071;-54
2023/05/20 07:25:13;;;;;;;2.90;1.83;;;;;;;;;;5064110;28;20053;-54
2023/05/20 07:27:40;;;;;;;2.20;1.98;;;;;;;;;;5065672;28;20048;-57
2023/05/20 07:30:07;;;;;;;4.38;2.17;;;;;;;;;;5059786;28;20092;-55
2023/05/20 07:32:33;;;;;;;3.22;2.22;;;;;;;;;;5063609;28;20056;-58
2023/05/20 07:35:00;;;;;;;3.13;2.45;;;;;;;;;;5054056;28;20142;-57
2023/05/20 07:37:26;;;;;;;4.15;2.47;;;;;;;;;;5062246;28;20064;-58
2023/05/20 07:39:53;;;;;;;3.78;1.80;;;;;;;;;;5064077;28;20049;-56
2023/05/20 07:42:19;;;;;;;3.63;2.28;;;;;;;;;;5063288;28;20583;-57
2023/05/20 07:44:46;;;;;;;4.20;2.25;;;;;;;;;;5060831;28;20063;-58
2023/05/20 07:47:12;;;;;;;3.78;2.15;;;;;;;;;;5065295;28;20136;-58
2023/05/20 07:49:39;;;;;;;2.30;2.10;;;;;;;;;;5064997;28;20975;-55
2023/05/20 07:52:05;;;;;;;2.53;2.03;;;;;;;;;;5065146;28;20053;-56
2023/05/20 07:54:33;;;;;;;2.53;1.67;;;;;;;;;;5064818;28;20057;-58
2023/05/20 07:56:59;;;;;;;4.88;2.35;;;;;;;;;;5051873;28;20483;-57
2023/05/20 07:59:26;;;;;;;3.97;2.25;;;;;;;;;;5044364;28;20131;-57
2023/05/20 08:01:53;;;;;;;2.63;2.13;;;;;;;;;;5046732;28;20057;-57
2023/05/20 08:04:19;;;;;;;4.90;2.03;;;;;;;;;;5059159;28;20060;-59
2023/05/20 08:06:45;;;;;;;2.67;2.25;;;;;;;;;;5063131;28;20056;-58
2023/05/20 08:09:12;;;;;;;6.30;2.00;;;;;;;;;;5064872;28;20057;-56
2023/05/20 08:11:38;;;;;;;3.28;1.70;;;;;;;;;;5065301;28;20075;-58
2023/05/20 08:14:05;;;;;;;2.88;1.95;;;;;;;;;;5061599;28;20057;-58
2023/05/20 08:16:31;;;;;;;2.83;1.95;;;;;;;;;;5063161;28;20057;-59
2023/05/20 08:18:58;;;;;;;4.05;1.85;;;;;;;;;;5065263;28;20049;-57
2023/05/20 08:21:24;;;;;;;2.13;1.75;;;;;;;;;;5065882;28;20056;-60
2023/05/20 08:23:50;;;;;;;2.05;1.80;;;;;;;;;;5068093;28;20076;-60
2023/05/20 08:26:17;;;;;;;2.13;1.60;;;;;;;;;;5068430;28;20506;-59
2023/05/20 08:28:43;;;;;;;3.40;1.95;;;;;;;;;;5066701;28;20103;-60
2023/05/20 08:31:09;;;;;;;3.67;1.65;;;;;;;;;;5066938;28;20087;-59
2023/05/20 08:33:36;;;;;;;3.40;1.80;;;;;;;;;;5065639;28;20075;-58
2023/05/20 08:36:02;;;;;;;2.95;1.50;;;;;;;;;;5064728;28;20052;-59
2023/05/20 08:38:29;;;;;;;5.03;1.70;;;;;;;;;;5064972;28;20107;-58
2023/05/20 08:40:56;;;;;;;4.72;1.33;;;;;;;;;;5063743;28;20107;-60
2023/05/20 08:43:23;;;;;;;1.75;1.30;;;;;;;;;;5064704;28;20187;-60
2023/05/20 08:45:51;;;;;;;1.38;1.05;;;;;;;;;;5062870;28;20061;-58
2023/05/20 08:48:18;;;;;;;2.53;1.48;;;;;;;;;;5065321;28;21775;-59
2023/05/20 08:50:51;;;;;;;3.42;1.45;;;;;;;;;;5064046;28;20052;-58
2023/05/20 08:53:19;;;;;;;2.80;1.42;;;;;;;;;;5065479;28;20045;-58
2023/05/20 08:55:47;;;;;;;1.30;1.20;;;;;;;;;;5065242;28;20053;-58
2023/05/20 08:58:14;;;;;;;1.58;1.02;;;;;;;;;;5077474;28;20053;-60
2023/05/20 09:00:41;;;;;;;1.55;1.30;;;;;;;;;;5062981;28;20052;-59
2023/05/20 09:03:07;;;;;;;2.58;1.17;;;;;;;;;;5057899;28;20056;-59
2023/05/20 09:05:34;;;;;;;2.05;1.10;;;;;;;;;;5063618;28;20056;-56
2023/05/20 09:08:07;;;;;;;1.60;1.10;;;;;;;;;;5063753;28;20057;-58
2023/05/20 09:10:35;;;;;;;1.75;1.65;;;;;;;;;;5063478;28;20058;-60
2023/05/20 09:13:03;;;;;;;2.75;1.00;;;;;;;;;;5054493;28;20172;-60
2023/05/20 09:15:30;;;;;;;2.95;1.30;;;;;;;;;;5061373;28;20068;-58
2023/05/20 09:18:03;;;;;;;1.67;1.02;;;;;;;;;;5062771;28;20106;-57
2023/05/20 09:20:31;;;;;;;1.85;1.58;;;;;;;;;;5063841;28;20057;-60
2023/05/20 09:22:58;;;;;;;1.65;1.27;;;;;;;;;;5063976;28;20053;-59
2023/05/20 09:25:25;;;;;;;3.05;1.30;;;;;;;;;;5064042;28;20060;-59
2023/05/20 09:27:51;;;;;;;1.75;1.08;;;;;;;;;;5063787;28;20049;-60
2023/05/20 09:30:18;;;;;;;3.20;1.30;;;;;;;;;;5063710;28;20589;-60
2023/05/20 09:32:51;;;;;;;1.20;1.10;;;;;;;;;;5061194;28;20083;-60
2023/05/20 09:35:18;;;;;;;1.40;1.08;;;;;;;;;;5065348;28;20225;-61
2023/05/20 09:37:45;;;;;;;1.98;1.20;;;;;;;;;;5063799;28;20064;-60
2023/05/20 09:40:14;;;;;;;1.85;1.30;;;;;;;;;;5062645;28;20095;-61
2023/05/20 09:42:49;;;;;;;1.25;1.15;;;;;;;;;;5068681;28;20505;-61
2023/05/20 09:45:15;;;;;;;2.30;1.10;;;;;;;;;;5079804;28;20052;-61
2023/05/20 09:47:42;;;;;;;0.88;0.88;;;;;;;;;;5063262;28;20110;-61
2023/05/20 09:50:09;;;;;;;3.03;1.60;;;;;;;;;;5062300;28;20064;-60
2023/05/20 09:52:36;;;;;;;1.42;1.15;;;;;;;;;;5064393;28;20959;-61
2023/05/20 09:55:04;;;;;;;2.42;1.05;;;;;;;;;;5066260;28;20059;-61
2023/05/20 09:57:32;;;;;;;1.27;1.00;;;;;;;;;;5065749;28;20049;-55
2023/05/20 09:59:59;;;;;;;1.60;1.23;;;;;;;;;;5065880;28;20091;-56
2023/05/20 10:02:26;;;;;;;1.52;1.10;;;;;;;;;;5069029;28;20052;-59
2023/05/20 10:04:54;;;;;;;1.63;1.30;;;;;;;;;;5087127;28;20055;-61
2023/05/20 10:07:25;;;;;;;1.30;1.20;;;;;;;;;;5087228;28;20464;-61
2023/05/20 10:10:09;;;;;;;1.63;1.20;;;;;;;;;;5084569;28;20056;-61
2023/05/20 10:12:43;;;;;;;1.30;1.15;;;;;;;;;;5067260;28;20053;-61
2023/05/20 10:15:23;;;;;;;1.13;0.98;;;;;;;;;;5064659;28;20477;-61
2023/05/20 10:17:49;;;;;;;1.60;1.23;;;;;;;;;;5061970;28;20566;-62
2023/05/20 10:20:16;;;;;;;2.20;1.20;;;;;;;;;;5067448;28;20612;-59
2023/05/20 10:22:44;;;;;;;2.88;1.10;;;;;;;;;;5067060;28;20945;-59
2023/05/20 10:25:24;;;;;;;1.73;1.10;;;;;;;;;;5071326;28;20048;-60
2023/05/20 10:27:50;;;;;;;1.58;1.10;;;;;;;;;;5067341;28;20878;-59
2023/05/20 10:30:18;;;;;;;1.50;1.10;;;;;;;;;;5054770;28;20108;-59
2023/05/20 10:32:48;;;;;;;1.25;1.10;;;;;;;;;;5065840;28;20151;-60
2023/05/20 10:35:19;;;;;;;1.35;1.08;;;;;;;;;;5065561;28;20083;-57
2023/05/20 10:37:47;;;;;;;1.35;1.25;;;;;;;;;;5065460;28;20053;-60
2023/05/20 10:40:14;;;;;;;7.95;1.60;;;;;;;;;;5065266;28;20087;-60
2023/05/20 10:42:41;;;;;;;2.28;1.15;;;;;;;;;;5074039;28;20056;-59
2023/05/20 10:45:08;;;;;;;1.60;1.08;;;;;;;;;;5062839;28;20363;-60
2023/05/20 10:47:35;;;;;;;1.85;0.85;;;;;;;;;;5063893;28;20053;-59
2023/05/20 10:50:03;;;;;;;1.50;1.20;;;;;;;;;;5065079;28;20057;-58
2023/05/20 10:52:35;;;;;;;3.67;1.40;;;;;;;;;;5065678;28;20114;-58
2023/05/20 10:55:03;;;;;;;1.35;1.17;;;;;;;;;;5073065;28;20049;-60
2023/05/20 10:57:31;;;;;;;1.92;1.17;;;;;;;;;;5066127;28;20056;-60
2023/05/20 10:59:57;;;;;;;1.40;0.93;;;;;;;;;;5066170;28;20084;-59
2023/05/20 11:02:25;;;;;;;2.22;1.10;;;;;;;;;;5063707;28;20063;-60
2023/05/20 11:04:54;;;;;;;1.98;1.10;;;;;;;;;;5064196;28;20499;-60
2023/05/20 11:07:27;;;;;;;7.65;1.60;;;;;;;;;;5066028;28;20057;-61
2023/05/20 11:09:54;;;;;;;1.40;1.02;;;;;;;;;;5065795;28;20521;-59
2023/05/20 11:12:22;;;;;;;6.40;1.42;;;;;;;;;;5064638;28;20140;-61
2023/05/20 11:14:48;;;;;;;1.27;1.05;;;;;;;;;;5059770;28;20053;-58
2023/05/20 11:17:15;;;;;;;2.28;1.10;;;;;;;;;;5062411;28;20148;-59
2023/05/20 11:19:41;;;;;;;1.73;1.08;;;;;;;;;;5056483;28;20108;-61
2023/05/20 11:22:08;;;;;;;1.80;1.20;;;;;;;;;;5061617;28;20458;-60
2023/05/20 11:24:34;;;;;;;8.60;1.10;;;;;;;;;;5061361;28;20107;-60
2023/05/20 11:27:01;;;;;;;0.95;0.95;;;;;;;;;;5059455;28;20053;-60
2023/05/20 11:29:30;;;;;;;3.30;1.65;;;;;;;;;;5062011;28;20139;-59
2023/05/20 11:31:58;;;;;;;1.85;1.42;;;;;;;;;;5063007;28;20077;-60
2023/05/20 11:34:25;;;;;;;1.58;1.35;;;;;;;;;;5066017;28;20057;-60
2023/05/20 11:36:57;;;;;;;1.98;1.55;;;;;;;;;;5064931;28;20514;-60
2023/05/20 11:39:26;;;;;;;1.50;1.38;;;;;;;;;;5068904;28;20048;-60
2023/05/20 11:41:52;;;;;;;1.75;1.33;;;;;;;;;;5065782;28;20144;-60
2023/05/20 11:44:19;;;;;;;1.90;1.38;;;;;;;;;;5062709;28;20572;-60
2023/05/20 11:46:47;;;;;;;3.30;2.10;;;;;;;;;;5065112;28;20051;-60
2023/05/20 11:49:13;;;;;;;2.15;1.08;;;;;;;;;;5085865;28;20079;-59
2023/05/20 11:51:41;;;;;;;2.78;1.27;;;;;;;;;;5066709;28;20513;-60
2023/05/20 11:54:08;;;;;;;0.93;0.93;;;;;;;;;;5048602;28;20053;-60
2023/05/20 11:56:36;;;;;;;1.13;1.00;;;;;;;;;;5064879;28;20053;-60
2023/05/20 11:59:03;;;;;;;1.40;1.00;;;;;;;;;;5084127;28;20053;-60
2023/05/20 12:01:32;;;;;;;1.70;1.10;;;;;;;;;;5075161;28;20782;-60
2023/05/20 12:03:58;;;;;;;5.28;1.55;;;;;;;;;;5063800;28;20182;-58
2023/05/20 12:06:26;;;;;;;1.55;0.90;;;;;;;;;;5044710;28;20518;-60
2023/05/20 12:08:52;;;;;;;2.67;1.67;;;;;;;;;;5052699;28;20568;-60
2023/05/20 12:11:20;;;;;;;1.10;1.00;;;;;;;;;;5060350;28;20107;-59
2023/05/20 12:13:46;;;;;;;2.03;1.85;;;;;;;;;;5063766;28;20088;-60
2023/05/20 12:16:13;;;;;;;1.10;1.00;;;;;;;;;;5062536;28;20053;-60
2023/05/20 12:18:39;;;;;;;1.27;1.10;;;;;;;;;;5052635;28;20053;-60
2023/05/20 12:21:06;;;;;;;1.48;1.17;;;;;;;;;;5062494;28;20063;-59
2023/05/20 12:23:33;;;;;;;1.40;1.30;;;;;;;;;;5064672;28;20049;-59
2023/05/20 12:25:59;;;;;;;1.05;1.00;;;;;;;;;;5062400;28;21234;-58
2023/05/20 12:28:26;;;;;;;1.98;1.27;;;;;;;;;;5058682;28;20059;-60
2023/05/20 12:30:52;;;;;;;3.35;1.10;;;;;;;;;;5063671;28;20521;-60
2023/05/20 12:33:19;;;;;;;1.13;0.95;;;;;;;;;;5064614;28;20124;-58
2023/05/20 12:35:46;;;;;;;1.27;1.08;;;;;;;;;;5060433;28;20053;-58
2023/05/20 12:38:12;;;;;;;1.55;1.20;;;;;;;;;;5063806;28;20454;-58
2023/05/20 12:40:38;;;;;;;2.60;1.00;;;;;;;;;;5048084;28;20055;-59
2023/05/20 12:43:05;;;;;;;0.88;0.88;;;;;;;;;;5063129;28;20057;-57
2023/05/20 12:45:32;;;;;;;1.77;1.20;;;;;;;;;;5063894;28;20053;-60
2023/05/20 12:47:58;;;;;;;1.42;0.95;;;;;;;;;;5064185;28;20085;-60
2023/05/20 12:50:25;;;;;;;1.15;0.98;;;;;;;;;;5062824;28;20522;-59
2023/05/20 12:52:51;;;;;;;1.48;1.00;;;;;;;;;;5064462;28;20107;-58
2023/05/20 12:55:18;;;;;;;3.53;1.27;;;;;;;;;;5065257;28;20556;-58
2023/05/20 12:57:45;;;;;;;2.75;1.48;;;;;;;;;;5063339;28;20136;-59
2023/05/20 13:00:12;;;;;;;2.20;1.00;;;;;;;;;;5058877;28;20049;-57
2023/05/20 13:02:40;;;;;;;1.02;0.90;;;;;;;;;;5063970;28;20053;-59
2023/05/20 13:05:06;;;;;;;2.80;1.60;;;;;;;;;;5057953;28;20116;-60
2023/05/20 13:07:33;;;;;;;1.23;1.13;;;;;;;;;;5059807;28;20056;-60
2023/05/20 13:09:59;;;;;;;1.00;1.00;;;;;;;;;;5064317;28;20084;-58
2023/05/20 13:12:26;;;;;;;2.92;1.08;;;;;;;;;;5063130;28;20059;-59
2023/05/20 13:14:52;;;;;;;4.80;1.25;;;;;;;;;;5063486;28;20197;-59
2023/05/20 13:17:19;;;;;;;1.10;1.00;;;;;;;;;;5059720;28;20154;-58
2023/05/20 13:19:45;;;;;;;2.00;1.30;;;;;;;;;;5056972;28;20576;-59
2023/05/20 13:22:12;;;;;;;1.10;1.00;;;;;;;;;;5063123;28;20492;-60
2023/05/20 13:24:38;;;;;;;4.22;1.15;;;;;;;;;;5055038;28;20064;-58
2023/05/20 13:27:05;;;;;;;1.33;1.20;;;;;;;;;;5060115;28;20058;-60
2023/05/20 13:29:31;;;;;;;1.10;1.10;;;;;;;;;;5052977;28;20573;-60
2023/05/20 13:31:58;;;;;;;2.03;1.08;;;;;;;;;;5052002;28;20513;-59
2023/05/20 13:34:27;;;;;;;1.20;1.10;;;;;;;;;;5064177;28;20057;-59
2023/05/20 13:36:53;;;;;;;1.75;1.20;;;;;;;;;;5064143;28;20168;-57
2023/05/20 13:39:20;;;;;;;2.55;1.00;;;;;;;;;;5059273;28;20528;-59
2023/05/20 13:41:46;;;;;;;1.30;1.20;;;;;;;;;;5053526;28;20053;-59
2023/05/20 13:44:13;;;;;;;2.75;1.05;;;;;;;;;;5053495;28;21611;-60
2023/05/20 13:46:39;;;;;;;3.42;1.00;;;;;;;;;;5058643;28;20060;-59
2023/05/20 13:49:06;;;;;;;2.30;1.05;;;;;;;;;;5057979;28;20088;-60
2023/05/20 13:51:32;;;;;;;1.55;1.27;;;;;;;;;;5060711;28;20060;-58
2023/05/20 13:53:59;;;;;;;2.50;1.10;;;;;;;;;;5053233;28;20119;-58
2023/05/20 13:56:27;;;;;;;2.47;1.42;;;;;;;;;;5060140;28;20132;-60
2023/05/20 13:58:53;;;;;;;3.08;1.40;;;;;;;;;;5060056;28;20049;-59
2023/05/20 14:01:19;;;;;;;1.17;1.08;;;;;;;;;;5053836;28;20136;-59
2023/05/20 14:03:46;;;;;;;1.23;1.13;;;;;;;;;;5059347;28;20576;-59
2023/05/20 14:06:14;;;;;;;2.90;2.05;;;;;;;;;;5049851;28;20107;-59
2023/05/20 14:08:41;;;;;;;1.00;0.90;;;;;;;;;;5052305;28;20057;-58
2023/05/20 14:11:07;;;;;;;2.30;0.98;;;;;;;;;;5053133;28;20049;-56
2023/05/20 14:13:34;;;;;;;1.20;0.95;;;;;;;;;;5055611;28;20107;-58
2023/05/20 14:16:00;;;;;;;1.25;1.00;;;;;;;;;;5062747;28;20053;-54
2023/05/20 14:18:27;;;;;;;0.82;0.82;;;;;;;;;;5064036;28;20045;-56
2023/05/20 14:20:55;;;;;;;1.83;1.20;;;;;;;;;;5063527;28;20060;-56
2023/05/20 14:23:21;;;;;;;2.03;1.45;;;;;;;;;;5062105;28;20045;-57
2023/05/20 14:25:48;;;;;;;3.50;1.27;;;;;;;;;;5061163;28;20139;-59
2023/05/20 14:28:14;;;;;;;1.75;1.10;;;;;;;;;;5059176;28;20053;-59
2023/05/20 14:30:40;;;;;;;2.15;1.15;;;;;;;;;;5062579;28;20049;-59
2023/05/20 14:33:07;;;;;;;1.20;1.10;;;;;;;;;;5062083;28;20057;-58
2023/05/20 14:35:33;;;;;;;1.90;1.10;;;;;;;;;;5046263;28;20949;-60
2023/05/20 14:38:00;;;;;;;1.70;0.80;;;;;;;;;;5043575;28;20111;-59
2023/05/20 14:40:26;;;;;;;2.03;1.10;;;;;;;;;;5063840;28;20069;-57
2023/05/20 14:42:53;;;;;;;1.55;0.82;;;;;;;;;;5063270;28;20061;-60